Time;durP1;ratioP1;P1;durP2;ratioP2;P2;SDS_P1;SDS_P2;PMS_P1;PMS_P2;Temp;Humidity;BMP_temperature;BMP_pressure;BME280_temperature;BME280_humidity;BME280_pressure;Samples;Min_cycle;Max_cycle;Signal;HPM_P1;HPM_P2
2022/10/16 00:00:47;;;;;;;346.67;163.73;;;;;;;;;;5014677;28;20290;-68
2022/10/16 00:03:13;;;;;;;321.13;148.80;;;;;;;;;;5012819;28;20315;-68
2022/10/16 00:05:40;;;;;;;438.23;214.90;;;;;;;;;;5010703;28;20316;-68
2022/10/16 00:08:07;;;;;;;581.77;294.03;;;;;;;;;;5003881;28;20168;-68
2022/10/16 00:10:37;;;;;;;632.47;320.00;;;;;;;;;;5002681;28;20216;-69
2022/10/16 00:13:06;;;;;;;519.87;257.53;;;;;;;;;;5017365;28;20996;-68
2022/10/16 00:15:39;;;;;;;588.77;301.00;;;;;;;;;;4995808;28;20236;-68
2022/10/16 00:18:05;;;;;;;458.37;218.10;;;;;;;;;;5002928;28;20219;-69
2022/10/16 00:20:36;;;;;;;625.97;315.17;;;;;;;;;;5012435;28;20274;-70
2022/10/16 00:23:12;;;;;;;610.80;306.93;;;;;;;;;;4996456;28;20812;-69
2022/10/16 00:25:38;;;;;;;438.90;214.97;;;;;;;;;;5015620;28;20604;-69
2022/10/16 00:28:04;;;;;;;504.43;249.67;;;;;;;;;;5011899;28;20213;-68
2022/10/16 00:30:41;;;;;;;663.23;339.83;;;;;;;;;;5005696;28;20257;-68
2022/10/16 00:33:07;;;;;;;464.60;224.57;;;;;;;;;;5003220;28;20212;-68
2022/10/16 00:35:39;;;;;;;646.27;344.37;;;;;;;;;;5005503;28;20224;-68
2022/10/16 00:38:05;;;;;;;373.97;178.27;;;;;;;;;;5010873;28;20185;-68
2022/10/16 00:40:31;;;;;;;330.07;155.80;;;;;;;;;;5014793;28;20290;-68
2022/10/16 00:42:57;;;;;;;445.13;216.40;;;;;;;;;;5006058;28;20270;-68
2022/10/16 00:45:24;;;;;;;516.03;254.97;;;;;;;;;;5011206;28;20234;-68
2022/10/16 00:47:52;;;;;;;694.73;360.93;;;;;;;;;;5005691;28;20534;-69
2022/10/16 00:50:27;;;;;;;408.77;193.00;;;;;;;;;;5001312;28;20184;-68
2022/10/16 00:52:54;;;;;;;577.73;287.77;;;;;;;;;;5005185;28;20200;-68
2022/10/16 00:55:20;;;;;;;348.97;166.87;;;;;;;;;;5007573;28;20780;-68
2022/10/16 00:57:50;;;;;;;509.37;255.17;;;;;;;;;;5001079;28;20229;-69
2022/10/16 01:00:18;;;;;;;490.83;239.80;;;;;;;;;;5007525;28;20227;-67
2022/10/16 01:02:44;;;;;;;440.60;213.67;;;;;;;;;;5004672;28;20223;-68
2022/10/16 01:05:10;;;;;;;559.77;288.47;;;;;;;;;;5005480;28;20275;-68
2022/10/16 01:07:41;;;;;;;406.93;200.37;;;;;;;;;;5000328;28;20176;-68
2022/10/16 01:10:11;;;;;;;609.47;312.30;;;;;;;;;;5011328;28;20260;-69
2022/10/16 01:12:37;;;;;;;473.03;235.77;;;;;;;;;;5001358;28;20264;-69
2022/10/16 01:15:09;;;;;;;575.03;293.93;;;;;;;;;;5000734;28;20271;-68
2022/10/16 01:17:44;;;;;;;508.40;246.13;;;;;;;;;;5022203;28;20239;-69
2022/10/16 01:20:15;;;;;;;596.37;296.90;;;;;;;;;;5007843;28;20198;-69
2022/10/16 01:22:44;;;;;;;351.37;163.30;;;;;;;;;;5001196;28;20249;-69
2022/10/16 01:25:17;;;;;;;567.00;286.67;;;;;;;;;;5004766;28;20670;-68
2022/10/16 01:27:46;;;;;;;431.33;211.43;;;;;;;;;;5002383;28;20343;-68
2022/10/16 01:30:21;;;;;;;552.73;285.00;;;;;;;;;;5006400;28;20216;-68
2022/10/16 01:32:56;;;;;;;338.17;156.50;;;;;;;;;;5005015;28;20238;-68
2022/10/16 01:35:27;;;;;;;500.97;252.93;;;;;;;;;;5004466;28;20523;-69
2022/10/16 01:38:01;;;;;;;399.63;197.20;;;;;;;;;;5006394;28;20180;-68
2022/10/16 01:40:27;;;;;;;469.37;241.43;;;;;;;;;;4998554;28;20351;-68
2022/10/16 01:42:56;;;;;;;531.67;269.93;;;;;;;;;;5003850;28;20299;-69
2022/10/16 01:45:22;;;;;;;496.77;254.77;;;;;;;;;;5003873;28;20212;-68
2022/10/16 01:47:49;;;;;;;632.87;315.83;;;;;;;;;;4997255;28;20405;-68
2022/10/16 01:50:21;;;;;;;507.10;255.30;;;;;;;;;;5004379;28;20184;-68
2022/10/16 01:52:50;;;;;;;561.63;288.20;;;;;;;;;;5003320;28;20898;-68
2022/10/16 01:55:19;;;;;;;468.33;237.47;;;;;;;;;;5006486;28;20244;-68
2022/10/16 01:57:46;;;;;;;564.93;288.63;;;;;;;;;;5006913;28;20597;-68
2022/10/16 02:00:17;;;;;;;428.47;207.00;;;;;;;;;;5000406;28;20226;-69
2022/10/16 02:02:45;;;;;;;511.23;245.57;;;;;;;;;;4998125;28;21704;-69
2022/10/16 02:05:15;;;;;;;484.70;234.70;;;;;;;;;;5005334;28;20211;-68
2022/10/16 02:07:44;;;;;;;522.27;265.63;;;;;;;;;;5002617;28;20169;-69
2022/10/16 02:10:10;;;;;;;461.87;227.00;;;;;;;;;;5009702;28;20239;-68
2022/10/16 02:12:39;;;;;;;401.20;194.87;;;;;;;;;;5006894;28;20303;-69
2022/10/16 02:15:05;;;;;;;373.47;184.83;;;;;;;;;;5003838;28;20208;-69
2022/10/16 02:17:32;;;;;;;446.13;218.43;;;;;;;;;;4999546;28;20215;-69
2022/10/16 02:20:01;;;;;;;515.23;258.77;;;;;;;;;;5011814;28;20666;-69
2022/10/16 02:22:39;;;;;;;546.77;282.20;;;;;;;;;;5005056;28;21044;-69
2022/10/16 02:25:08;;;;;;;613.87;327.43;;;;;;;;;;5007902;28;20303;-69
2022/10/16 02:27:42;;;;;;;438.87;215.97;;;;;;;;;;5007866;28;20211;-69
2022/10/16 02:30:18;;;;;;;529.67;274.63;;;;;;;;;;5002106;28;20230;-69
2022/10/16 02:32:48;;;;;;;571.70;290.57;;;;;;;;;;5008585;28;20227;-69
2022/10/16 02:35:16;;;;;;;503.47;254.73;;;;;;;;;;5005097;28;20188;-69
2022/10/16 02:37:42;;;;;;;404.00;194.33;;;;;;;;;;5005291;28;20681;-69
2022/10/16 02:40:08;;;;;;;426.77;205.87;;;;;;;;;;5007051;28;20252;-68
2022/10/16 02:42:36;;;;;;;539.80;272.03;;;;;;;;;;5002582;28;20216;-68
2022/10/16 02:45:02;;;;;;;432.13;215.27;;;;;;;;;;5004320;28;20290;-69
2022/10/16 02:47:28;;;;;;;509.23;259.10;;;;;;;;;;4997577;28;20498;-68
2022/10/16 02:49:54;;;;;;;399.20;196.37;;;;;;;;;;5007192;28;20199;-68
2022/10/16 02:52:20;;;;;;;326.53;154.10;;;;;;;;;;5010095;28;20224;-68
2022/10/16 02:54:46;;;;;;;424.00;212.87;;;;;;;;;;5008825;28;20235;-68
2022/10/16 02:57:12;;;;;;;534.17;266.73;;;;;;;;;;5013449;28;20272;-68
2022/10/16 02:59:38;;;;;;;628.43;317.03;;;;;;;;;;5004477;28;20710;-69
2022/10/16 03:02:05;;;;;;;495.87;248.03;;;;;;;;;;5009204;28;20192;-67
2022/10/16 03:04:31;;;;;;;590.17;305.67;;;;;;;;;;5010911;28;20251;-69
2022/10/16 03:06:57;;;;;;;352.93;170.40;;;;;;;;;;5019153;28;20499;-69
2022/10/16 03:09:23;;;;;;;442.63;218.97;;;;;;;;;;5011371;28;20340;-68
2022/10/16 03:11:52;;;;;;;492.40;250.13;;;;;;;;;;5010873;28;20723;-68
2022/10/16 03:14:18;;;;;;;352.97;170.00;;;;;;;;;;5004188;28;20192;-67
2022/10/16 03:16:44;;;;;;;617.57;315.97;;;;;;;;;;5010133;28;20222;-69
2022/10/16 03:19:10;;;;;;;448.93;225.30;;;;;;;;;;5006107;28;20224;-69
2022/10/16 03:21:36;;;;;;;524.97;259.87;;;;;;;;;;5014850;28;20665;-69
2022/10/16 03:24:02;;;;;;;416.97;205.97;;;;;;;;;;5009183;28;20219;-68
2022/10/16 03:26:29;;;;;;;573.00;295.77;;;;;;;;;;5011028;28;20222;-68
2022/10/16 03:28:55;;;;;;;584.90;294.17;;;;;;;;;;5015568;28;20188;-68
2022/10/16 03:31:21;;;;;;;573.87;293.50;;;;;;;;;;5009703;28;20788;-69
2022/10/16 03:33:47;;;;;;;445.07;217.40;;;;;;;;;;5012634;28;20304;-69
2022/10/16 03:36:13;;;;;;;491.03;247.60;;;;;;;;;;5010902;28;20676;-69
2022/10/16 03:38:42;;;;;;;522.90;274.80;;;;;;;;;;5013606;28;20208;-69
2022/10/16 03:41:08;;;;;;;411.80;200.77;;;;;;;;;;5010631;28;20234;-69
2022/10/16 03:43:34;;;;;;;514.87;270.73;;;;;;;;;;5008489;28;20228;-69
2022/10/16 03:46:00;;;;;;;586.80;306.33;;;;;;;;;;5005713;28;20684;-69
2022/10/16 03:48:26;;;;;;;341.10;166.47;;;;;;;;;;5012738;28;20215;-68
2022/10/16 03:50:52;;;;;;;483.40;240.30;;;;;;;;;;5007152;28;20702;-69
2022/10/16 03:53:18;;;;;;;427.50;209.37;;;;;;;;;;5011514;28;20185;-68
2022/10/16 03:55:47;;;;;;;659.27;347.27;;;;;;;;;;5006075;28;20398;-69
2022/10/16 03:58:16;;;;;;;534.73;272.53;;;;;;;;;;5024773;28;20213;-68
2022/10/16 04:00:48;;;;;;;651.37;332.67;;;;;;;;;;5001540;28;20236;-67
2022/10/16 04:03:14;;;;;;;368.53;174.90;;;;;;;;;;5010575;28;20224;-68
2022/10/16 04:05:40;;;;;;;470.03;239.03;;;;;;;;;;5007589;28;20821;-68
2022/10/16 04:08:06;;;;;;;478.53;238.00;;;;;;;;;;5011269;28;20180;-69
2022/10/16 04:10:32;;;;;;;392.17;188.83;;;;;;;;;;5009508;28;20581;-68
2022/10/16 04:13:01;;;;;;;644.40;337.07;;;;;;;;;;5006938;28;20204;-69
2022/10/16 04:15:27;;;;;;;517.87;267.70;;;;;;;;;;5005803;28;20278;-68
2022/10/16 04:17:56;;;;;;;537.33;279.37;;;;;;;;;;5009167;28;20233;-68
2022/10/16 04:20:22;;;;;;;461.00;232.77;;;;;;;;;;4999548;28;20229;-68
2022/10/16 04:22:52;;;;;;;609.07;316.00;;;;;;;;;;5025409;28;20184;-68
2022/10/16 04:25:17;;;;;;;572.23;298.87;;;;;;;;;;5018653;28;20753;-68
2022/10/16 04:27:43;;;;;;;545.37;291.27;;;;;;;;;;5012341;28;20207;-68
2022/10/16 04:30:10;;;;;;;380.33;184.13;;;;;;;;;;5009976;28;20573;-67
2022/10/16 04:32:36;;;;;;;500.53;258.23;;;;;;;;;;5014574;28;20263;-68
2022/10/16 04:35:05;;;;;;;602.63;321.47;;;;;;;;;;5004379;28;20310;-69
2022/10/16 04:37:31;;;;;;;527.00;278.13;;;;;;;;;;5002001;28;20572;-69
2022/10/16 04:39:59;;;;;;;561.07;289.27;;;;;;;;;;5005985;28;20510;-68
2022/10/16 04:42:25;;;;;;;542.57;274.17;;;;;;;;;;5002659;28;20267;-68
2022/10/16 04:44:51;;;;;;;463.70;227.57;;;;;;;;;;5008644;28;20584;-69
2022/10/16 04:47:17;;;;;;;408.17;200.70;;;;;;;;;;5008277;28;20599;-68
2022/10/16 04:49:48;;;;;;;500.00;262.80;;;;;;;;;;5015805;28;20180;-69
2022/10/16 04:52:16;;;;;;;582.87;308.70;;;;;;;;;;5005440;28;20223;-69
2022/10/16 04:54:44;;;;;;;495.00;250.13;;;;;;;;;;5003945;28;20216;-69
2022/10/16 04:57:10;;;;;;;536.50;270.50;;;;;;;;;;5007590;28;20220;-69
2022/10/16 04:59:39;;;;;;;504.50;246.80;;;;;;;;;;5000512;28;20263;-68
2022/10/16 05:02:05;;;;;;;504.70;254.00;;;;;;;;;;5004273;28;20220;-68
2022/10/16 05:04:31;;;;;;;412.67;195.50;;;;;;;;;;5001195;28;20977;-68
2022/10/16 05:06:57;;;;;;;429.57;206.87;;;;;;;;;;5007765;28;20227;-69
2022/10/16 05:09:29;;;;;;;560.00;280.67;;;;;;;;;;5028053;28;20549;-69
2022/10/16 05:11:55;;;;;;;574.37;290.87;;;;;;;;;;5000716;28;20228;-69
2022/10/16 05:14:24;;;;;;;493.60;242.80;;;;;;;;;;5004466;28;20206;-69
2022/10/16 05:16:51;;;;;;;438.63;215.20;;;;;;;;;;5006982;28;20440;-69
2022/10/16 05:19:20;;;;;;;607.77;312.00;;;;;;;;;;5004981;28;20679;-69
2022/10/16 05:21:46;;;;;;;543.90;278.07;;;;;;;;;;5007186;28;20231;-69
2022/10/16 05:24:12;;;;;;;608.87;309.57;;;;;;;;;;4998373;28;20542;-70
2022/10/16 05:26:39;;;;;;;388.10;191.30;;;;;;;;;;5006174;28;20357;-69
2022/10/16 05:29:07;;;;;;;598.20;313.07;;;;;;;;;;5003916;28;20313;-69
2022/10/16 05:31:33;;;;;;;541.57;283.20;;;;;;;;;;5011327;28;20212;-69
2022/10/16 05:34:00;;;;;;;523.70;280.67;;;;;;;;;;5004565;28;20327;-69
2022/10/16 05:36:26;;;;;;;548.33;296.63;;;;;;;;;;5000246;28;20790;-68
2022/10/16 05:38:52;;;;;;;516.33;265.00;;;;;;;;;;5006040;28;20319;-69
2022/10/16 05:41:21;;;;;;;476.73;240.60;;;;;;;;;;5001696;28;20704;-67
2022/10/16 05:43:47;;;;;;;471.33;231.13;;;;;;;;;;5007490;28;20298;-68
2022/10/16 05:46:13;;;;;;;538.57;275.10;;;;;;;;;;5003353;28;22042;-68
2022/10/16 05:48:39;;;;;;;520.93;259.27;;;;;;;;;;5003154;28;20238;-69
2022/10/16 05:51:06;;;;;;;510.63;263.93;;;;;;;;;;5008887;28;20829;-68
2022/10/16 05:53:34;;;;;;;507.47;255.40;;;;;;;;;;5009262;28;20224;-68
2022/10/16 05:56:00;;;;;;;531.90;283.17;;;;;;;;;;5005056;28;20245;-70
2022/10/16 05:58:35;;;;;;;432.83;217.70;;;;;;;;;;4983004;28;20233;-74
2022/10/16 06:01:02;;;;;;;424.83;210.57;;;;;;;;;;5007886;28;20257;-74
2022/10/16 06:03:28;;;;;;;327.63;160.97;;;;;;;;;;5020565;28;20366;-71
2022/10/16 06:05:57;;;;;;;542.63;279.83;;;;;;;;;;5016039;28;20235;-73
2022/10/16 06:08:24;;;;;;;526.97;271.40;;;;;;;;;;5019980;28;20237;-71
2022/10/16 06:11:01;;;;;;;580.60;292.37;;;;;;;;;;5017878;28;20176;-70
2022/10/16 06:13:27;;;;;;;401.90;192.87;;;;;;;;;;5017192;28;20257;-70
2022/10/16 06:15:53;;;;;;;523.40;270.57;;;;;;;;;;5013031;28;20228;-70
2022/10/16 06:18:19;;;;;;;565.07;297.77;;;;;;;;;;5006744;28;20214;-70
2022/10/16 06:20:45;;;;;;;530.37;262.00;;;;;;;;;;5013983;28;20227;-70
2022/10/16 06:23:17;;;;;;;438.40;230.20;;;;;;;;;;5018156;28;20207;-71
2022/10/16 06:25:43;;;;;;;472.97;238.57;;;;;;;;;;5021691;23;20224;-55
2022/10/16 06:28:08;;;;;;;482.67;251.13;;;;;;;;;;4998845;28;20223;-55
2022/10/16 06:30:34;;;;;;;430.93;212.97;;;;;;;;;;5002110;28;20688;-55
2022/10/16 06:33:00;;;;;;;470.17;238.27;;;;;;;;;;5007113;28;20358;-55
2022/10/16 06:35:26;;;;;;;464.17;242.47;;;;;;;;;;5002901;28;20256;-55
2022/10/16 06:37:55;;;;;;;340.10;170.23;;;;;;;;;;5001801;28;20230;-55
2022/10/16 06:40:21;;;;;;;405.20;202.57;;;;;;;;;;5010538;28;20227;-55
2022/10/16 06:42:47;;;;;;;489.23;240.73;;;;;;;;;;5005947;28;20216;-55
2022/10/16 06:45:13;;;;;;;539.43;268.03;;;;;;;;;;5005075;28;20270;-55
2022/10/16 06:47:39;;;;;;;464.87;230.93;;;;;;;;;;4999934;28;20977;-54
2022/10/16 06:50:07;;;;;;;470.50;234.10;;;;;;;;;;5003045;28;20600;-55
2022/10/16 06:52:33;;;;;;;472.20;249.83;;;;;;;;;;5004237;28;20304;-55
2022/10/16 06:54:59;;;;;;;437.30;220.93;;;;;;;;;;5005649;28;20204;-55
2022/10/16 06:57:25;;;;;;;457.73;228.17;;;;;;;;;;5009741;28;20213;-55
2022/10/16 06:59:51;;;;;;;380.57;189.03;;;;;;;;;;5000593;28;20255;-55
2022/10/16 07:02:17;;;;;;;515.73;259.90;;;;;;;;;;5001853;28;20260;-55
2022/10/16 07:04:43;;;;;;;517.27;263.47;;;;;;;;;;5005682;28;20552;-55
2022/10/16 07:07:09;;;;;;;485.10;244.27;;;;;;;;;;5007306;28;20204;-55
2022/10/16 07:09:35;;;;;;;459.27;233.20;;;;;;;;;;5003955;28;20623;-55
2022/10/16 07:12:01;;;;;;;428.13;223.63;;;;;;;;;;5008626;28;20288;-55
2022/10/16 07:14:26;;;;;;;482.50;245.87;;;;;;;;;;5007515;28;20184;-54
2022/10/16 07:16:52;;;;;;;488.40;250.93;;;;;;;;;;5013747;28;20257;-55
2022/10/16 07:19:18;;;;;;;386.63;191.37;;;;;;;;;;5009220;28;20401;-55
2022/10/16 07:21:44;;;;;;;531.77;272.50;;;;;;;;;;4996165;28;20311;-56
2022/10/16 07:24:13;;;;;;;460.13;231.67;;;;;;;;;;4999509;28;20270;-55
2022/10/16 07:26:39;;;;;;;507.77;258.20;;;;;;;;;;4996780;28;20592;-55
2022/10/16 07:29:06;;;;;;;469.43;242.77;;;;;;;;;;4994623;28;20184;-55
2022/10/16 07:31:32;;;;;;;522.20;267.43;;;;;;;;;;4996832;28;20318;-54
2022/10/16 07:33:58;;;;;;;441.17;219.13;;;;;;;;;;5003212;28;21142;-55
2022/10/16 07:36:24;;;;;;;528.17;276.83;;;;;;;;;;4995277;28;20223;-55
2022/10/16 07:38:50;;;;;;;436.00;225.47;;;;;;;;;;5007455;28;20227;-55
2022/10/16 07:41:17;;;;;;;475.47;241.53;;;;;;;;;;5008789;28;20560;-55
2022/10/16 07:43:47;;;;;;;545.00;274.73;;;;;;;;;;5014399;28;20563;-55
2022/10/16 07:46:14;;;;;;;418.90;209.57;;;;;;;;;;5007644;28;20216;-55
2022/10/16 07:48:40;;;;;;;556.97;285.27;;;;;;;;;;5005933;28;22051;-55
2022/10/16 07:51:06;;;;;;;444.37;225.40;;;;;;;;;;4999593;28;20245;-55
2022/10/16 07:53:33;;;;;;;408.77;204.97;;;;;;;;;;5004366;28;20219;-55
2022/10/16 07:56:03;;;;;;;406.97;208.33;;;;;;;;;;5005118;28;20247;-55
2022/10/16 07:58:29;;;;;;;530.47;275.33;;;;;;;;;;5007694;28;20569;-54
2022/10/16 08:00:56;;;;;;;512.77;263.70;;;;;;;;;;5001750;28;20775;-51
2022/10/16 08:03:22;;;;;;;500.37;264.73;;;;;;;;;;4987686;28;20572;-52
2022/10/16 08:05:48;;;;;;;524.73;269.07;;;;;;;;;;5002280;28;20342;-52
2022/10/16 08:08:14;;;;;;;486.33;243.83;;;;;;;;;;4986920;28;20189;-52
2022/10/16 08:10:40;;;;;;;434.53;220.33;;;;;;;;;;4989266;28;20185;-52
2022/10/16 08:13:06;;;;;;;489.90;249.73;;;;;;;;;;4987325;28;20212;-52
2022/10/16 08:15:32;;;;;;;351.97;177.43;;;;;;;;;;4989121;28;20316;-52
2022/10/16 08:17:59;;;;;;;518.90;259.73;;;;;;;;;;4999894;28;20275;-52
2022/10/16 08:20:26;;;;;;;413.17;207.60;;;;;;;;;;5002682;28;20273;-51
2022/10/16 08:22:52;;;;;;;489.33;255.87;;;;;;;;;;5007820;28;20595;-52
2022/10/16 08:25:18;;;;;;;452.53;223.67;;;;;;;;;;5007471;28;20274;-51
2022/10/16 08:27:44;;;;;;;513.03;268.43;;;;;;;;;;5006102;28;20235;-55
2022/10/16 08:30:10;;;;;;;467.57;233.40;;;;;;;;;;5001907;28;20322;-55
2022/10/16 08:32:36;;;;;;;430.30;216.43;;;;;;;;;;5005093;28;20263;-55
2022/10/16 08:35:02;;;;;;;503.30;269.97;;;;;;;;;;5003104;28;20208;-54
2022/10/16 08:37:32;;;;;;;530.43;280.03;;;;;;;;;;4996180;28;20223;-55
2022/10/16 08:39:58;;;;;;;608.60;318.57;;;;;;;;;;5003911;28;20220;-56
2022/10/16 08:42:32;;;;;;;437.37;224.40;;;;;;;;;;5007111;28;20659;-55
2022/10/16 08:45:16;;;;;;;538.03;279.87;;;;;;;;;;5009617;28;20725;-55
2022/10/16 08:48:01;;;;;;;469.53;249.37;;;;;;;;;;5003610;28;20212;-55
2022/10/16 08:50:28;;;;;;;469.80;243.93;;;;;;;;;;5009327;28;20222;-55
2022/10/16 08:52:55;;;;;;;348.33;188.23;;;;;;;;;;5011454;28;20188;-55
2022/10/16 08:55:23;;;;;;;501.47;264.77;;;;;;;;;;5010752;28;20219;-55
2022/10/16 08:57:49;;;;;;;481.37;250.73;;;;;;;;;;5008299;28;20312;-55
2022/10/16 09:00:16;;;;;;;551.67;305.63;;;;;;;;;;4999249;28;20241;-55
2022/10/16 09:02:48;;;;;;;461.70;250.70;;;;;;;;;;5002011;28;20354;-55
2022/10/16 09:05:22;;;;;;;515.63;277.13;;;;;;;;;;5009024;28;20216;-55
2022/10/16 09:08:06;;;;;;;495.80;263.37;;;;;;;;;;5005154;28;20277;-56
2022/10/16 09:10:38;;;;;;;443.63;242.87;;;;;;;;;;5008692;28;20213;-55
2022/10/16 09:13:09;;;;;;;464.17;261.00;;;;;;;;;;5013919;28;20216;-55
2022/10/16 09:15:40;;;;;;;499.50;271.40;;;;;;;;;;5007519;28;20220;-55
2022/10/16 09:18:12;;;;;;;510.73;278.07;;;;;;;;;;4996635;28;20219;-56
2022/10/16 09:20:46;;;;;;;591.33;325.63;;;;;;;;;;5005122;28;20343;-55
2022/10/16 09:23:15;;;;;;;466.23;252.23;;;;;;;;;;5012323;28;20676;-55
2022/10/16 09:25:43;;;;;;;479.10;257.47;;;;;;;;;;5010739;28;20216;-54
2022/10/16 09:28:10;;;;;;;442.60;239.03;;;;;;;;;;5007870;28;20343;-55
2022/10/16 09:30:36;;;;;;;371.57;204.97;;;;;;;;;;5011324;28;20212;-55
2022/10/16 09:33:02;;;;;;;589.40;323.53;;;;;;;;;;4996031;28;20354;-55
2022/10/16 09:35:45;;;;;;;473.47;263.93;;;;;;;;;;5009952;28;20691;-56
2022/10/16 09:38:28;;;;;;;519.47;283.70;;;;;;;;;;5013271;28;20207;-56
2022/10/16 09:40:55;;;;;;;442.87;242.43;;;;;;;;;;5012428;28;20179;-56
2022/10/16 09:43:28;;;;;;;540.30;285.80;;;;;;;;;;5007465;28;20232;-56
2022/10/16 09:45:58;;;;;;;436.57;231.60;;;;;;;;;;5015284;28;20224;-55
2022/10/16 09:48:25;;;;;;;458.57;253.37;;;;;;;;;;5002839;28;20214;-56
2022/10/16 09:50:58;;;;;;;484.77;272.50;;;;;;;;;;5009684;28;20284;-56
2022/10/16 09:53:26;;;;;;;543.10;295.70;;;;;;;;;;5001993;28;20390;-53
2022/10/16 09:55:53;;;;;;;468.73;252.53;;;;;;;;;;5008901;28;20204;-53
2022/10/16 09:58:21;;;;;;;585.23;308.87;;;;;;;;;;5011884;28;20565;-53
2022/10/16 10:00:54;;;;;;;435.03;242.23;;;;;;;;;;5018365;28;20310;-53
2022/10/16 10:03:37;;;;;;;512.17;285.37;;;;;;;;;;5016916;28;20525;-53
2022/10/16 10:06:23;;;;;;;448.13;245.03;;;;;;;;;;5003910;28;20249;-56
2022/10/16 10:09:12;;;;;;;445.80;253.67;;;;;;;;;;4993071;28;20211;-55
2022/10/16 10:11:39;;;;;;;443.60;243.53;;;;;;;;;;5012424;28;20227;-55
2022/10/16 10:14:06;;;;;;;573.37;326.67;;;;;;;;;;5000476;28;20267;-55
2022/10/16 10:16:32;;;;;;;486.93;270.23;;;;;;;;;;5003032;28;21218;-56
2022/10/16 10:18:59;;;;;;;573.40;311.90;;;;;;;;;;5005924;28;20223;-55
2022/10/16 10:21:27;;;;;;;582.73;338.67;;;;;;;;;;4993885;28;20247;-55
2022/10/16 10:24:00;;;;;;;441.07;245.33;;;;;;;;;;5012298;28;20771;-56
2022/10/16 10:26:29;;;;;;;462.57;264.83;;;;;;;;;;5003479;28;20238;-55
2022/10/16 10:29:13;;;;;;;499.13;277.47;;;;;;;;;;5009118;28;20538;-55
2022/10/16 10:31:44;;;;;;;506.37;273.90;;;;;;;;;;5010855;28;20227;-55
2022/10/16 10:34:25;;;;;;;528.33;295.30;;;;;;;;;;5005740;28;20228;-55
2022/10/16 10:36:58;;;;;;;415.20;225.50;;;;;;;;;;5005564;28;20554;-55
2022/10/16 10:39:28;;;;;;;503.13;281.87;;;;;;;;;;5007946;28;20216;-55
2022/10/16 10:41:54;;;;;;;475.20;262.87;;;;;;;;;;5004481;28;20219;-55
2022/10/16 10:44:20;;;;;;;502.60;279.20;;;;;;;;;;4993768;28;20220;-55
2022/10/16 10:46:57;;;;;;;426.63;231.60;;;;;;;;;;4997163;28;20235;-55
2022/10/16 10:49:22;;;;;;;442.97;239.33;;;;;;;;;;5004762;28;20261;-55
2022/10/16 10:51:48;;;;;;;502.80;273.80;;;;;;;;;;5007430;28;20615;-55
2022/10/16 10:54:17;;;;;;;471.90;258.57;;;;;;;;;;5003088;28;20254;-55
2022/10/16 10:57:02;;;;;;;528.20;299.27;;;;;;;;;;4994004;28;20760;-55
2022/10/16 10:59:31;;;;;;;445.63;246.93;;;;;;;;;;5008146;28;20204;-55
2022/10/16 11:02:05;;;;;;;427.57;242.33;;;;;;;;;;5003313;28;20202;-55
2022/10/16 11:04:31;;;;;;;446.33;252.47;;;;;;;;;;5000258;28;20724;-55
2022/10/16 11:07:05;;;;;;;572.73;323.33;;;;;;;;;;4988174;28;20310;-56
2022/10/16 11:09:36;;;;;;;463.83;259.30;;;;;;;;;;4994453;28;20235;-55
2022/10/16 11:12:02;;;;;;;495.33;274.10;;;;;;;;;;4994936;28;20565;-56
2022/10/16 11:14:40;;;;;;;485.77;281.00;;;;;;;;;;4991282;28;20280;-55
2022/10/16 11:17:25;;;;;;;527.57;294.63;;;;;;;;;;5002285;28;20256;-55
2022/10/16 11:20:10;;;;;;;578.37;328.43;;;;;;;;;;4993058;28;20403;-55
2022/10/16 11:22:48;;;;;;;400.57;222.10;;;;;;;;;;5017834;28;20219;-55
2022/10/16 11:25:17;;;;;;;505.93;291.07;;;;;;;;;;4997778;28;21265;-55
2022/10/16 11:27:51;;;;;;;561.77;305.00;;;;;;;;;;5022089;28;20218;-55
2022/10/16 11:30:20;;;;;;;473.80;253.93;;;;;;;;;;4990360;28;20458;-55
2022/10/16 11:33:06;;;;;;;513.57;288.93;;;;;;;;;;4997145;28;20221;-55
2022/10/16 11:35:48;;;;;;;478.67;265.20;;;;;;;;;;4994224;28;22206;-55
2022/10/16 11:38:34;;;;;;;482.10;269.60;;;;;;;;;;4991867;28;20195;-55
2022/10/16 11:41:10;;;;;;;465.23;251.73;;;;;;;;;;4995296;28;20227;-55
2022/10/16 11:43:39;;;;;;;541.87;313.03;;;;;;;;;;4989225;28;20238;-55
2022/10/16 11:46:10;;;;;;;555.67;309.63;;;;;;;;;;4988326;28;20683;-55
2022/10/16 11:48:55;;;;;;;475.13;263.20;;;;;;;;;;4997950;28;20592;-55
2022/10/16 11:51:26;;;;;;;519.37;290.30;;;;;;;;;;4995656;28;20725;-55
2022/10/16 11:53:56;;;;;;;500.43;278.53;;;;;;;;;;4995837;28;20723;-55
2022/10/16 11:56:22;;;;;;;483.37;272.00;;;;;;;;;;4997513;28;20208;-55
2022/10/16 11:58:54;;;;;;;492.50;284.27;;;;;;;;;;5006948;28;20234;-55
2022/10/16 12:01:21;;;;;;;386.10;217.77;;;;;;;;;;5001608;28;20215;-55
2022/10/16 12:04:06;;;;;;;500.60;285.53;;;;;;;;;;5001281;28;20232;-55
2022/10/16 12:06:33;;;;;;;532.47;309.60;;;;;;;;;;5000408;28;20805;-55
2022/10/16 12:09:02;;;;;;;490.93;290.13;;;;;;;;;;4992642;28;20220;-55
2022/10/16 12:11:28;;;;;;;501.67;286.37;;;;;;;;;;4993199;28;20191;-55
2022/10/16 12:14:07;;;;;;;555.13;323.47;;;;;;;;;;4995151;28;20458;-55
2022/10/16 12:16:33;;;;;;;464.90;265.70;;;;;;;;;;4991873;28;20228;-55
2022/10/16 12:19:16;;;;;;;469.50;282.37;;;;;;;;;;4991341;28;20221;-55
2022/10/16 12:21:43;;;;;;;546.10;315.60;;;;;;;;;;4993187;28;21395;-55
2022/10/16 12:24:22;;;;;;;506.77;288.33;;;;;;;;;;4999600;28;20436;-55
2022/10/16 12:26:50;;;;;;;508.50;298.80;;;;;;;;;;4997201;28;21308;-55
2022/10/16 12:29:39;;;;;;;490.77;293.80;;;;;;;;;;4991000;28;20195;-55
2022/10/16 12:32:25;;;;;;;525.27;299.77;;;;;;;;;;4984062;28;20306;-55
2022/10/16 12:34:51;;;;;;;494.93;282.00;;;;;;;;;;4989863;28;20228;-55
2022/10/16 12:37:28;;;;;;;467.60;263.43;;;;;;;;;;4995691;28;20740;-55
2022/10/16 12:39:55;;;;;;;525.13;302.23;;;;;;;;;;5001253;28;20338;-55
2022/10/16 12:42:29;;;;;;;515.40;295.63;;;;;;;;;;4993930;28;20212;-55
2022/10/16 12:44:56;;;;;;;427.37;240.53;;;;;;;;;;5000125;28;20216;-56
2022/10/16 12:47:32;;;;;;;497.30;288.07;;;;;;;;;;4986477;28;20254;-55
2022/10/16 12:49:59;;;;;;;502.20;287.47;;;;;;;;;;4999847;28;20229;-55
2022/10/16 12:52:28;;;;;;;484.05;279.23;;;;;;;;;;4989475;28;20589;-55
2022/10/16 12:54:59;;;;;;;449.75;270.60;;;;;;;;;;4991384;28;20236;-55
2022/10/16 12:57:43;;;;;;;424.73;254.13;;;;;;;;;;5001588;28;20211;-55
2022/10/16 13:00:21;;;;;;;543.38;332.33;;;;;;;;;;4996595;28;20596;-55
2022/10/16 13:02:50;;;;;;;508.30;303.58;;;;;;;;;;4995382;28;21037;-56
2022/10/16 13:05:22;;;;;;;524.95;310.38;;;;;;;;;;4993218;28;20569;-55
2022/10/16 13:08:01;;;;;;;590.42;354.10;;;;;;;;;;4988205;28;20294;-55
2022/10/16 13:10:28;;;;;;;530.75;325.65;;;;;;;;;;4992892;28;20209;-56
2022/10/16 13:12:57;;;;;;;554.70;338.10;;;;;;;;;;4999560;28;20208;-56
2022/10/16 13:15:29;;;;;;;474.40;295.30;;;;;;;;;;4987665;28;20512;-55
2022/10/16 13:18:15;;;;;;;463.40;302.00;;;;;;;;;;4999780;28;20715;-56
2022/10/16 13:21:04;;;;;;;483.35;318.10;;;;;;;;;;4996814;28;20304;-56
2022/10/16 13:23:30;;;;;;;;;;;;;;;;;;4979566;28;21634;-56
2022/10/16 13:25:56;;;;;;;;;;;;;;;;;;4996227;28;20203;-56
2022/10/16 13:28:24;;;;;;;;;;;;;;;;;;4992320;28;20244;-56
2022/10/16 13:30:50;;;;;;;;;;;;;;;;;;5005625;28;20216;-56
2022/10/16 13:33:31;;;;;;;373.63;288.58;;;;;;;;;;5010584;28;20246;-56
2022/10/16 13:35:58;;;;;;;373.00;298.70;;;;;;;;;;5017321;28;20247;-56
2022/10/16 13:38:25;;;;;;;456.15;355.05;;;;;;;;;;5008848;28;21299;-56
2022/10/16 13:41:00;;;;;;;380.05;306.15;;;;;;;;;;5022830;28;20686;-56
2022/10/16 13:43:36;;;;;;;371.50;305.48;;;;;;;;;;5020546;28;20261;-56
2022/10/16 13:46:06;;;;;;;378.58;310.77;;;;;;;;;;5022159;28;20230;-56
2022/10/16 13:48:34;;;;;;;379.17;317.88;;;;;;;;;;5017645;28;20299;-56
2022/10/16 13:51:04;;;;;;;382.88;318.13;;;;;;;;;;5024235;28;20215;-56
2022/10/16 13:53:31;;;;;;;382.88;317.58;;;;;;;;;;5016496;28;20213;-56
2022/10/16 13:55:59;;;;;;;399.67;336.17;;;;;;;;;;5019156;28;20719;-56
2022/10/16 13:58:25;;;;;;;380.15;319.60;;;;;;;;;;5017727;28;20526;-56
2022/10/16 14:01:05;;;;;;;393.10;331.75;;;;;;;;;;5012918;28;20247;-56
2022/10/16 14:03:33;;;;;;;388.65;324.08;;;;;;;;;;5023426;28;20222;-56
2022/10/16 14:06:00;;;;;;;382.75;321.63;;;;;;;;;;5022060;28;20829;-56